Perry, Louisiana
Current Conditions -  °F | °C
As of 12:50 AM on Thursday 23 Oct 2014 (Local Time) from KIYA Reporting Station
Clear Clear  
Wind Chill: 57°   Ceiling: Unl
Heat Index: 57°   Visibility: 10mi
Dew Point: 53°   Wind: 3mph
Humidity: 87%   Direction: 20°NNE
Pressure: 30.08"   Gusts: NA
Location:  29.95°N, 92.16°W
Report Text: KIYA 230550Z AUTO 02003KT 10SM CLR 14/12 A3008 RMK AO2 T01410119
Loading
Personal Weather Stations






























Interactive Weather Map New forecast layout! Learn more

10-Day Weather Forecast

Advertisements
Track Severe Weather on mobile